Time;durP1;ratioP1;P1;durP2;ratioP2;P2;SDS_P1;SDS_P2;PMS_P1;PMS_P2;Temp;Humidity;BMP_temperature;BMP_pressure;BME280_temperature;BME280_humidity;BME280_pressure;Samples;Min_cycle;Max_cycle;Signal;HPM_P1;HPM_P2
2024/01/19 00:00:05;;;;;;;6.90;3.50;;;;;;;-6.40;95.43;97904.59;10310748;28;20045;-65
2024/01/19 00:05:08;;;;;;;7.95;3.72;;;;;;;-6.38;95.83;97902.50;10314830;28;20558;-63
2024/01/19 00:10:11;;;;;;;8.00;3.95;;;;;;;-6.35;96.19;97900.41;10298486;28;20051;-62
2024/01/19 00:15:13;;;;;;;8.05;3.97;;;;;;;-6.35;96.41;97901.22;10314815;28;20041;-63
2024/01/19 00:20:16;;;;;;;7.63;4.75;;;;;;;-6.36;97.17;97898.78;10314477;28;20042;-63
2024/01/19 00:25:18;;;;;;;7.43;4.00;;;;;;;-6.34;97.82;97894.03;10316877;28;20070;-63
2024/01/19 00:30:21;;;;;;;7.13;3.80;;;;;;;-6.31;97.96;97901.53;10299965;28;20038;-62
2024/01/19 00:35:23;;;;;;;7.47;3.72;;;;;;;-6.27;98.77;97898.16;10315171;28;20522;-62
2024/01/19 00:40:25;;;;;;;8.10;3.92;;;;;;;-6.29;98.52;97899.44;10314640;28;20042;-62
2024/01/19 00:45:28;;;;;;;8.60;3.80;;;;;;;-6.22;98.25;97897.44;10301141;28;20045;-64
2024/01/19 00:50:30;;;;;;;9.52;4.45;;;;;;;-6.16;98.17;97896.47;10295876;28;20046;-62
2024/01/19 00:55:32;;;;;;;6.65;3.28;;;;;;;-6.10;97.60;97888.28;10299436;28;20046;-62
2024/01/19 01:00:35;;;;;;;4.93;2.92;;;;;;;-6.02;96.85;97902.31;10317520;28;20050;-62
2024/01/19 01:05:37;;;;;;;6.70;3.28;;;;;;;-5.98;96.88;97896.25;10320215;28;20042;-62
2024/01/19 01:10:40;;;;;;;6.30;3.72;;;;;;;-5.95;96.56;97898.44;10315051;28;20047;-63
2024/01/19 01:15:44;;;;;;;6.07;3.13;;;;;;;-5.92;96.06;97905.94;10321680;28;20051;-63
2024/01/19 01:20:46;;;;;;;6.63;2.85;;;;;;;-5.86;95.87;97909.50;10325468;28;20414;-62
2024/01/19 01:25:48;;;;;;;5.45;2.92;;;;;;;-5.81;94.94;97918.38;10322256;28;20038;-62
2024/01/19 01:30:51;;;;;;;7.32;3.05;;;;;;;-5.74;94.74;97917.41;10307992;28;20050;-62
2024/01/19 01:35:53;;;;;;;4.68;2.95;;;;;;;-5.69;93.76;97929.00;10314529;28;20038;-62
2024/01/19 01:40:56;;;;;;;7.38;2.67;;;;;;;-5.68;94.10;97927.16;10322542;28;20045;-62
2024/01/19 01:45:58;;;;;;;4.30;2.67;;;;;;;-5.67;93.78;97931.44;10304408;28;20042;-62
2024/01/19 01:51:01;;;;;;;3.47;2.15;;;;;;;-5.66;93.67;97922.38;10320497;28;20430;-62
2024/01/19 01:56:07;;;;;;;2.90;1.40;;;;;;;-5.62;93.13;97924.28;10316556;28;20518;-62
2024/01/19 02:01:09;;;;;;;4.30;2.20;;;;;;;-5.53;92.03;97930.88;10288606;28;20395;-62
2024/01/19 02:06:12;;;;;;;3.33;1.98;;;;;;;-5.48;92.22;97932.78;10316735;28;20047;-62
2024/01/19 02:11:14;;;;;;;2.50;1.80;;;;;;;-5.41;90.66;97933.44;10317746;28;20572;-62
2024/01/19 02:16:17;;;;;;;2.47;1.50;;;;;;;-5.35;89.61;97935.13;10319226;28;20548;-62
2024/01/19 02:21:21;;;;;;;3.25;1.45;;;;;;;-5.35;88.94;97937.81;10301217;28;20039;-63
2024/01/19 02:26:23;;;;;;;2.97;1.65;;;;;;;-5.31;89.55;97948.81;10303404;28;20530;-64
2024/01/19 02:31:26;;;;;;;2.58;1.60;;;;;;;-5.32;89.81;97953.34;10301737;28;20046;-64
2024/01/19 02:36:29;;;;;;;2.55;1.33;;;;;;;-5.33;90.24;97951.72;10318448;28;20506;-63
2024/01/19 02:41:32;;;;;;;3.20;1.60;;;;;;;-5.32;89.98;97944.53;10319588;28;20046;-63
2024/01/19 02:46:38;;;;;;;2.05;1.33;;;;;;;-5.33;90.11;97946.38;10320148;28;20049;-63
2024/01/19 02:51:40;;;;;;;3.97;1.60;;;;;;;-5.35;90.13;97945.03;10320107;28;20047;-63
2024/01/19 02:56:43;;;;;;;2.28;1.20;;;;;;;-5.36;89.79;97946.88;10319032;28;20514;-63
2024/01/19 03:01:46;;;;;;;5.20;2.05;;;;;;;-5.37;90.21;97941.78;10317569;28;20035;-63
2024/01/19 03:06:48;;;;;;;4.43;1.38;;;;;;;-5.45;90.98;97953.69;10318148;28;20054;-62
2024/01/19 03:11:51;;;;;;;3.10;1.02;;;;;;;-5.48;92.52;97946.97;10317290;28;20042;-62
2024/01/19 03:16:53;;;;;;;1.17;1.08;;;;;;;-5.56;93.73;97952.69;10316147;28;20043;-62
2024/01/19 03:21:55;;;;;;;1.88;1.00;;;;;;;-5.55;94.51;97953.53;10319160;28;20046;-62
2024/01/19 03:26:58;;;;;;;0.93;0.82;;;;;;;-5.53;95.52;97954.09;10301695;28;20042;-62
2024/01/19 03:32:02;;;;;;;1.38;0.90;;;;;;;-5.51;96.42;97968.84;10286040;28;20062;-62
2024/01/19 03:37:04;;;;;;;1.63;1.23;;;;;;;-5.43;96.47;97970.28;10303594;28;20046;-62
2024/01/19 03:42:08;;;;;;;1.27;1.10;;;;;;;-5.35;95.69;97959.19;10317244;28;20038;-62
2024/01/19 03:47:10;;;;;;;2.08;0.90;;;;;;;-5.22;94.71;97966.84;10317254;28;20533;-63
2024/01/19 03:52:13;;;;;;;0.52;0.45;;;;;;;-5.20;95.14;97964.75;10299997;28;20506;-65
2024/01/19 03:57:16;;;;;;;0.17;0.17;;;;;;;-5.18;94.80;97965.31;10299385;28;20034;-65
2024/01/19 04:02:18;;;;;;;0.50;0.50;;;;;;;-5.13;94.22;97966.44;10304663;28;20414;-65
2024/01/19 04:07:20;;;;;;;0.40;0.40;;;;;;;-5.11;93.98;97970.50;10314672;28;20046;-65
2024/01/19 04:12:23;;;;;;;3.80;0.80;;;;;;;-5.04;94.17;97986.34;10318415;28;20327;-66
2024/01/19 04:17:26;;;;;;;0.10;0.10;;;;;;;-5.02;94.69;97994.97;10284348;28;20039;-65
2024/01/19 04:22:28;;;;;;;1.27;0.28;;;;;;;-5.12;97.47;98014.31;10317416;28;20645;-65
2024/01/19 04:27:30;;;;;;;0.20;0.20;;;;;;;-5.17;99.17;98020.41;10269576;28;20070;-65
2024/01/19 04:32:34;;;;;;;1.02;0.60;;;;;;;-5.14;100.00;98042.34;10304831;28;20042;-65
2024/01/19 04:37:38;;;;;;;0.22;0.22;;;;;;;-5.14;100.00;98039.69;10315223;28;20038;-65
2024/01/19 04:42:40;;;;;;;0.90;0.85;;;;;;;-5.13;100.00;98058.16;10311602;28;20038;-65
2024/01/19 04:47:43;;;;;;;0.60;0.60;;;;;;;-5.17;100.00;98057.84;10319487;28;20042;-65
2024/01/19 04:52:45;;;;;;;2.22;0.50;;;;;;;-5.22;100.00;98068.41;10310480;28;20050;-66
2024/01/19 04:57:48;;;;;;;0.20;0.20;;;;;;;-5.22;100.00;98071.09;10324361;28;20144;-65
2024/01/19 05:02:51;;;;;;;0.47;0.47;;;;;;;-5.22;100.00;98091.66;10322549;28;20454;-65
2024/01/19 05:07:54;;;;;;;0.28;0.28;;;;;;;-5.20;100.00;98102.97;10321627;28;20051;-66
2024/01/19 05:12:57;;;;;;;1.45;0.77;;;;;;;-5.20;100.00;98106.44;10322617;28;20042;-65
2024/01/19 05:18:00;;;;;;;2.95;1.70;;;;;;;-5.20;100.00;98121.66;10320426;28;20039;-66
2024/01/19 05:23:03;;;;;;;20.95;2.08;;;;;;;-5.23;100.00;98128.28;10322191;28;20042;-65
2024/01/19 05:28:05;;;;;;;2.15;1.55;;;;;;;-5.24;100.00;98133.88;10323717;28;20514;-65
2024/01/19 05:33:09;;;;;;;3.22;1.00;;;;;;;-5.26;100.00;98152.81;10324993;28;20038;-66
2024/01/19 05:38:12;;;;;;;0.90;0.47;;;;;;;-5.24;100.00;98157.94;10321409;28;20038;-66
2024/01/19 05:43:14;;;;;;;1.80;1.17;;;;;;;-5.23;100.00;98173.72;10323526;28;20069;-66
2024/01/19 05:48:17;;;;;;;0.65;0.65;;;;;;;-5.24;100.00;98179.31;10324130;28;20062;-65
2024/01/19 05:53:19;;;;;;;2.00;1.25;;;;;;;-5.26;100.00;98187.56;10321652;28;20051;-64
2024/01/19 05:58:22;;;;;;;1.20;1.10;;;;;;;-5.29;100.00;98198.75;10324260;28;20054;-66
2024/01/19 06:03:25;;;;;;;1.75;1.45;;;;;;;-5.30;99.69;98204.34;10320958;28;20518;-66
2024/01/19 06:08:28;;;;;;;4.97;1.77;;;;;;;-5.32;99.77;98212.59;10304434;28;20426;-66
2024/01/19 06:13:32;;;;;;;1.58;1.42;;;;;;;-5.32;99.64;98222.47;10304618;28;20057;-66
2024/01/19 06:18:34;;;;;;;2.35;1.60;;;;;;;-5.35;99.90;98225.63;10322512;28;20046;-65
2024/01/19 06:23:38;;;;;;;1.50;1.10;;;;;;;-5.38;100.00;98223.41;10321442;28;20050;-65
2024/01/19 06:28:41;;;;;;;1.80;0.93;;;;;;;-5.35;100.00;98237.13;10320870;28;20069;-65
2024/01/19 06:33:46;;;;;;;4.03;1.42;;;;;;;-5.33;100.00;98248.38;10318176;28;20050;-65
2024/01/19 06:38:54;;;;;;;2.03;1.65;;;;;;;-5.36;100.00;98256.88;10320960;28;20050;-64
2024/01/19 06:43:56;;;;;;;3.25;1.55;;;;;;;-5.45;99.93;98260.97;10320412;28;20043;-65
2024/01/19 06:48:59;;;;;;;2.30;1.45;;;;;;;-5.54;99.66;98273.06;10302138;28;20038;-65
2024/01/19 06:54:02;;;;;;;1.60;1.33;;;;;;;-5.55;99.38;98284.81;10320663;28;20050;-65
2024/01/19 06:59:04;;;;;;;2.42;2.00;;;;;;;-5.56;100.00;98288.50;10320042;28;20049;-66
2024/01/19 07:04:07;;;;;;;2.85;1.58;;;;;;;-5.67;100.00;98316.88;10317593;28;20049;-66
2024/01/19 07:09:10;;;;;;;2.67;1.90;;;;;;;-5.84;100.00;98305.28;10321082;28;20046;-66
2024/01/19 07:14:12;;;;;;;1.67;1.17;;;;;;;-5.66;100.00;98305.16;10316946;28;20050;-64
2024/01/19 07:19:14;;;;;;;1.73;1.40;;;;;;;-5.54;100.00;98321.16;10318740;28;20055;-64
2024/01/19 07:24:17;;;;;;;3.72;1.63;;;;;;;-5.47;100.00;98314.63;10301845;28;20046;-66
2024/01/19 07:29:20;;;;;;;4.10;1.25;;;;;;;-5.40;99.67;98316.38;10317391;28;20043;-64
2024/01/19 07:34:24;;;;;;;11.48;2.10;;;;;;;-5.29;97.29;98324.38;10320213;28;20046;-64
2024/01/19 07:39:27;;;;;;;1.35;1.00;;;;;;;-5.17;95.32;98332.38;10313196;28;20494;-64
2024/01/19 07:44:30;;;;;;;1.55;1.00;;;;;;;-5.10;94.44;98334.91;10301448;28;20047;-65
2024/01/19 07:49:33;;;;;;;0.50;0.50;;;;;;;-5.13;94.45;98330.84;10303512;28;20038;-66
2024/01/19 07:54:35;;;;;;;0.93;0.88;;;;;;;-5.14;94.14;98341.78;10304508;28;20043;-65
2024/01/19 07:59:38;;;;;;;0.50;0.50;;;;;;;-5.11;94.30;98354.66;10323491;28;20049;-65
2024/01/19 08:04:42;;;;;;;0.25;0.25;;;;;;;-5.09;94.03;98368.63;10318840;28;20430;-64
2024/01/19 08:09:45;;;;;;;1.95;0.82;;;;;;;-5.09;93.97;98365.94;10303940;28;20042;-66
2024/01/19 08:14:47;;;;;;;1.95;1.08;;;;;;;-5.08;94.57;98360.34;10316828;28;20050;-65
2024/01/19 08:19:49;;;;;;;3.38;1.20;;;;;;;-5.13;95.34;98373.63;10330878;28;20053;-64
2024/01/19 08:24:52;;;;;;;0.50;0.50;;;;;;;-5.12;95.41;98380.59;10332056;28;20051;-66
2024/01/19 08:29:54;;;;;;;1.48;0.95;;;;;;;-5.21;97.12;98385.50;10314469;28;20446;-65
2024/01/19 08:34:56;;;;;;;2.17;1.35;;;;;;;-5.21;98.20;98390.00;10331476;28;20039;-66
2024/01/19 08:40:00;;;;;;;3.22;1.10;;;;;;;-5.19;99.78;98393.28;10330019;28;20474;-65
2024/01/19 08:45:03;;;;;;;0.20;0.20;;;;;;;-5.29;100.00;98399.22;10319349;28;20042;-65
2024/01/19 08:50:07;;;;;;;0.40;0.40;;;;;;;-5.28;100.00;98408.03;10329164;28;20038;-66
2024/01/19 08:55:09;;;;;;;2.42;0.82;;;;;;;-5.28;100.00;98400.03;10331298;28;20054;-65
2024/01/19 09:00:12;;;;;;;1.42;1.33;;;;;;;-5.32;100.00;98402.34;10329009;28;20035;-65
2024/01/19 09:05:15;;;;;;;1.42;0.93;;;;;;;-5.28;100.00;98402.69;10331160;28;20053;-64
2024/01/19 09:10:17;;;;;;;0.50;0.50;;;;;;;-5.25;100.00;98403.03;10320693;28;20047;-65
2024/01/19 09:15:20;;;;;;;1.33;1.05;;;;;;;-5.23;100.00;98408.97;10324158;28;20061;-66
2024/01/19 09:20:24;;;;;;;1.80;1.55;;;;;;;-5.28;100.00;98400.84;10323383;28;20035;-65
2024/01/19 09:25:27;;;;;;;0.73;0.70;;;;;;;-5.19;100.00;98396.78;10329632;28;20422;-65
2024/01/19 09:30:29;;;;;;;2.10;1.40;;;;;;;-5.13;100.00;98400.34;10322939;28;20031;-65
2024/01/19 09:35:31;;;;;;;1.60;0.73;;;;;;;-5.13;99.47;98395.00;10324217;28;20057;-66
2024/01/19 09:40:35;;;;;;;2.28;1.70;;;;;;;-5.00;98.48;98388.59;10323594;28;20042;-66
2024/01/19 09:45:41;;;;;;;0.77;0.77;;;;;;;-4.94;95.94;98388.47;10324873;28;20043;-66
2024/01/19 09:50:47;;;;;;;0.70;0.70;;;;;;;-4.91;96.16;98389.84;10323469;28;20062;-65
2024/01/19 09:55:49;;;;;;;2.45;1.13;;;;;;;-4.85;94.97;98391.59;10304572;28;20050;-65
2024/01/19 10:00:52;;;;;;;0.95;0.95;;;;;;;-4.77;95.48;98404.59;10323618;28;20046;-63
2024/01/19 10:05:54;;;;;;;3.92;0.95;;;;;;;-4.80;94.91;98382.84;10286025;28;20057;-64
2024/01/19 10:10:59;;;;;;;0.73;0.73;;;;;;;-4.77;94.52;98391.22;10317212;28;20528;-64
2024/01/19 10:16:01;;;;;;;0.95;0.68;;;;;;;-4.64;94.43;98392.81;10320010;28;20046;-65
2024/01/19 10:21:05;;;;;;;1.85;1.13;;;;;;;-4.47;94.94;98393.66;10355862;28;20042;-65
2024/01/19 10:26:16;;;;;;;2.50;0.93;;;;;;;-4.27;94.59;98393.22;10292583;28;20058;-64
2024/01/19 10:31:21;;;;;;;1.58;1.17;;;;;;;-4.38;94.66;98397.56;10287330;28;20034;-64
2024/01/19 10:36:23;;;;;;;0.82;0.80;;;;;;;-4.42;95.06;98401.78;10301592;28;20047;-64
2024/01/19 10:41:26;;;;;;;0.43;0.43;;;;;;;-4.49;95.66;98400.31;10320836;28;20038;-64
2024/01/19 10:46:29;;;;;;;0.55;0.50;;;;;;;-4.69;96.42;98412.22;10306270;28;20034;-65
2024/01/19 10:51:35;;;;;;;0.40;0.30;;;;;;;-4.72;97.89;98434.09;10302501;28;20031;-64
2024/01/19 10:56:38;;;;;;;1.55;0.90;;;;;;;-4.68;98.88;98432.59;10296124;28;20498;-64
2024/01/19 11:01:42;;;;;;;1.17;0.82;;;;;;;-4.63;99.19;98435.38;10288622;28;20058;-64
2024/01/19 11:06:44;;;;;;;2.95;1.88;;;;;;;-4.73;99.96;98445.88;10298809;28;20043;-64
2024/01/19 11:11:50;;;;;;;6.18;2.67;;;;;;;-5.03;99.77;98459.41;10314698;28;20066;-64
2024/01/19 11:16:56;;;;;;;2.50;1.83;;;;;;;-5.19;100.00;98457.44;10315254;28;20038;-65
2024/01/19 11:22:00;;;;;;;4.50;1.85;;;;;;;-5.32;100.00;98455.81;10341159;28;20054;-64
2024/01/19 11:27:22;;;;;;;1.10;0.85;;;;;;;-5.38;100.00;98477.28;10323536;28;20041;-63
2024/01/19 11:32:25;;;;;;;1.35;0.85;;;;;;;-5.40;100.00;98476.72;10338715;28;20641;-63
2024/01/19 11:37:44;;;;;;;0.98;0.93;;;;;;;-5.38;100.00;98478.13;10357681;28;20042;-62
2024/01/19 11:42:47;;;;;;;1.25;1.20;;;;;;;-5.57;100.00;98476.56;10321997;28;20042;-64
2024/01/19 11:47:50;;;;;;;1.00;0.57;;;;;;;-5.55;100.00;98485.19;10318315;28;20038;-63
2024/01/19 11:52:54;;;;;;;1.98;0.63;;;;;;;-5.47;100.00;98490.19;10316054;28;20101;-63
2024/01/19 11:58:29;;;;;;;1.70;0.57;;;;;;;-5.50;100.00;98487.97;10318156;28;20045;-64
2024/01/19 12:03:32;;;;;;;0.93;0.63;;;;;;;-5.49;100.00;98495.78;10305286;28;20042;-64
2024/01/19 12:08:35;;;;;;;0.43;0.43;;;;;;;-5.49;100.00;98522.50;10301486;28;20043;-63
2024/01/19 12:13:40;;;;;;;1.73;1.30;;;;;;;-5.59;100.00;98551.63;10338213;28;20039;-64
2024/01/19 12:18:44;;;;;;;3.00;1.25;;;;;;;-6.24;100.00;98564.03;10354923;28;20042;-64
2024/01/19 12:23:52;;;;;;;4.50;1.67;;;;;;;-6.42;100.00;98565.69;10334683;28;20054;-64
2024/01/19 12:28:56;;;;;;;5.32;1.70;;;;;;;-6.57;100.00;98573.25;10312467;28;20396;-63
2024/01/19 12:34:10;;;;;;;1.95;1.02;;;;;;;-6.60;100.00;98580.84;10302302;28;20039;-65
2024/01/19 12:39:14;;;;;;;1.23;1.00;;;;;;;-6.70;100.00;98592.03;10318603;28;20042;-64
2024/01/19 12:44:16;;;;;;;1.70;1.23;;;;;;;-6.78;100.00;98597.63;10313377;28;20038;-66
2024/01/19 12:49:19;;;;;;;2.28;1.40;;;;;;;-6.83;100.00;98598.28;10318984;28;20051;-64
2024/01/19 12:54:21;;;;;;;2.85;1.58;;;;;;;-6.76;100.00;98609.75;10318757;28;20035;-65
2024/01/19 12:59:24;;;;;;;2.13;1.25;;;;;;;-6.67;100.00;98610.25;10314960;28;20541;-64
2024/01/19 13:04:27;;;;;;;2.00;1.35;;;;;;;-6.58;100.00;98613.47;10319283;28;20062;-64
2024/01/19 13:09:29;;;;;;;4.05;1.73;;;;;;;-6.50;100.00;98622.00;10307945;28;20039;-63
2024/01/19 13:14:33;;;;;;;2.67;1.30;;;;;;;-6.43;100.00;98638.72;10324611;28;20050;-64
2024/01/19 13:19:43;;;;;;;2.97;1.50;;;;;;;-6.37;100.00;98642.38;10290121;28;20054;-63
2024/01/19 13:24:46;;;;;;;1.42;0.98;;;;;;;-6.31;100.00;98654.03;10324804;28;20035;-63
2024/01/19 13:29:49;;;;;;;1.92;1.45;;;;;;;-6.30;100.00;98658.31;10346361;28;20050;-64
2024/01/19 13:34:52;;;;;;;1.55;1.10;;;;;;;-6.41;100.00;98659.88;10363493;28;20042;-64
2024/01/19 13:39:56;;;;;;;2.13;1.10;;;;;;;-6.46;100.00;98678.38;10352793;28;20035;-62
2024/01/19 13:45:02;;;;;;;3.15;1.27;;;;;;;-6.69;100.00;98685.16;10331842;28;20058;-64
2024/01/19 13:50:06;;;;;;;2.35;1.42;;;;;;;-7.07;100.00;98697.75;10326580;28;20038;-64
2024/01/19 13:55:08;;;;;;;2.35;1.25;;;;;;;-7.39;100.00;98711.06;10312125;28;20054;-64
2024/01/19 14:00:12;;;;;;;3.95;1.80;;;;;;;-7.53;99.87;98722.78;10322795;28;20042;-63
2024/01/19 14:05:14;;;;;;;3.95;2.13;;;;;;;-7.64;99.36;98744.75;10323898;28;20062;-63
2024/01/19 14:10:17;;;;;;;6.28;1.60;;;;;;;-7.70;99.09;98759.72;10320811;28;20043;-64
2024/01/19 14:15:19;;;;;;;6.28;1.40;;;;;;;-7.80;99.08;98786.00;10322282;28;20561;-64
2024/01/19 14:20:21;;;;;;;2.67;1.40;;;;;;;-7.91;99.24;98797.25;10323537;28;20517;-64
2024/01/19 14:25:24;;;;;;;4.90;1.63;;;;;;;-8.01;98.78;98804.84;10322958;28;20415;-64
2024/01/19 14:30:26;;;;;;;1.00;0.90;;;;;;;-8.03;99.28;98809.56;10336717;28;20506;-64
2024/01/19 14:35:28;;;;;;;4.75;1.50;;;;;;;-8.15;99.06;98821.88;10321497;28;20035;-63
2024/01/19 14:40:32;;;;;;;1.95;1.27;;;;;;;-8.26;98.78;98823.28;10305690;28;20035;-64
2024/01/19 14:45:35;;;;;;;3.10;1.40;;;;;;;-8.36;98.20;98842.34;10321554;28;20038;-64
2024/01/19 14:50:40;;;;;;;3.70;1.45;;;;;;;-8.39;97.93;98841.94;10323524;28;20043;-63
2024/01/19 14:55:42;;;;;;;2.75;1.55;;;;;;;-8.44;98.37;98858.50;10319773;28;20395;-63
2024/01/19 15:00:45;;;;;;;3.03;1.48;;;;;;;-8.46;98.32;98863.22;10304453;28;20031;-64
2024/01/19 15:05:47;;;;;;;2.10;1.35;;;;;;;-8.42;98.51;98869.75;10312363;28;20046;-64
2024/01/19 15:10:50;;;;;;;2.33;1.40;;;;;;;-8.39;98.06;98879.16;10305199;28;20046;-64
2024/01/19 15:15:52;;;;;;;1.52;1.42;;;;;;;-8.42;98.53;98885.72;10319249;28;20054;-66
2024/01/19 15:20:55;;;;;;;5.65;1.63;;;;;;;-8.43;98.34;98893.91;10315975;28;20050;-65
2024/01/19 15:25:57;;;;;;;3.63;2.13;;;;;;;-8.40;97.97;98904.94;10320075;28;20034;-65
2024/01/19 15:30:59;;;;;;;5.32;2.58;;;;;;;-8.40;98.36;98910.25;10319187;28;20042;-65
2024/01/19 15:36:08;;;;;;;5.68;2.28;;;;;;;-8.34;98.14;98919.28;10296301;28;20132;-65
2024/01/19 15:41:10;;;;;;;2.03;1.30;;;;;;;-8.37;98.20;98917.84;10291395;28;20045;-65
2024/01/19 15:46:22;;;;;;;3.80;1.10;;;;;;;-8.37;97.23;98931.13;10319936;28;20039;-65
2024/01/19 15:51:25;;;;;;;5.63;1.67;;;;;;;-8.51;97.13;98924.97;10295705;28;20066;-65
2024/01/19 15:56:28;;;;;;;1.67;1.52;;;;;;;-8.52;96.10;98930.47;10316780;28;20045;-66
2024/01/19 16:01:30;;;;;;;2.30;1.05;;;;;;;-8.57;95.34;98936.41;10306203;28;20048;-66
2024/01/19 16:06:33;;;;;;;2.33;1.23;;;;;;;-8.61;94.30;98937.81;10300374;28;20042;-66
2024/01/19 16:11:36;;;;;;;2.08;1.13;;;;;;;-8.58;94.25;98950.72;10316251;28;20043;-67
2024/01/19 16:16:42;;;;;;;3.65;1.67;;;;;;;-8.48;93.77;98954.84;10306499;28;20049;-67
2024/01/19 16:21:49;;;;;;;3.83;1.52;;;;;;;-8.54;92.89;98953.78;10307352;28;20054;-65
2024/01/19 16:26:59;;;;;;;2.05;1.25;;;;;;;-8.60;92.53;98975.88;10289059;28;20042;-67
2024/01/19 16:32:02;;;;;;;3.15;1.83;;;;;;;-8.61;91.90;98988.34;10317107;28;20046;-67
2024/01/19 16:37:04;;;;;;;2.70;1.20;;;;;;;-8.56;91.76;98979.78;10317427;28;20058;-66
2024/01/19 16:42:08;;;;;;;2.95;1.30;;;;;;;-8.58;90.67;98984.47;10349219;28;20070;-66
2024/01/19 16:47:11;;;;;;;2.83;1.10;;;;;;;-8.59;90.34;99007.59;10327163;28;20030;-66
2024/01/19 16:52:13;;;;;;;1.95;1.05;;;;;;;-8.61;91.13;99003.47;10306994;28;20035;-66
2024/01/19 16:57:15;;;;;;;2.63;1.60;;;;;;;-8.65;90.51;99031.50;10323681;28;20046;-66
2024/01/19 17:02:18;;;;;;;4.38;2.05;;;;;;;-8.70;90.73;99039.22;10320739;28;20069;-68
2024/01/19 17:07:21;;;;;;;3.97;2.13;;;;;;;-8.78;90.66;99053.50;10320229;28;20051;-68
2024/01/19 17:12:23;;;;;;;2.67;1.40;;;;;;;-8.75;89.90;99061.06;10321365;28;20066;-66
2024/01/19 17:17:25;;;;;;;1.73;1.27;;;;;;;-8.78;89.27;99071.28;10323501;28;20031;-68
2024/01/19 17:22:28;;;;;;;1.85;1.15;;;;;;;-8.87;89.24;99076.75;10325559;28;20045;-67
2024/01/19 17:27:30;;;;;;;1.90;1.00;;;;;;;-8.92;88.20;99092.47;10314448;28;20043;-68
2024/01/19 17:32:34;;;;;;;4.60;1.33;;;;;;;-9.06;87.17;99098.69;10321218;28;20039;-65
2024/01/19 17:37:36;;;;;;;3.20;1.45;;;;;;;-9.19;87.46;99117.19;10312295;28;20066;-66
2024/01/19 17:42:40;;;;;;;4.15;1.60;;;;;;;-9.24;86.83;99119.59;10279238;28;20043;-65
2024/01/19 17:47:42;;;;;;;1.35;1.10;;;;;;;-9.32;85.22;99135.66;10307363;28;20034;-66
2024/01/19 17:52:45;;;;;;;0.80;0.60;;;;;;;-9.37;84.53;99160.16;10320355;28;20035;-65
2024/01/19 17:57:49;;;;;;;2.00;1.02;;;;;;;-9.49;83.92;99167.78;10317250;28;20039;-65
2024/01/19 18:02:52;;;;;;;1.42;0.98;;;;;;;-9.59;83.71;99183.19;10281908;28;20055;-65
2024/01/19 18:07:56;;;;;;;2.13;1.00;;;;;;;-9.76;83.51;99181.75;10308740;28;20046;-66
2024/01/19 18:13:00;;;;;;;3.15;1.60;;;;;;;-9.94;83.40;99203.38;10291195;28;20034;-66
2024/01/19 18:18:03;;;;;;;3.70;1.20;;;;;;;-10.13;83.65;99222.50;10321588;28;20034;-66
2024/01/19 18:23:05;;;;;;;1.13;1.02;;;;;;;-10.27;82.96;99236.63;10298284;28;20047;-66
2024/01/19 18:28:08;;;;;;;2.60;1.20;;;;;;;-10.40;82.84;99251.34;10309061;28;20446;-66
2024/01/19 18:33:10;;;;;;;2.97;1.35;;;;;;;-10.59;82.57;99261.59;10311577;28;20057;-66
2024/01/19 18:38:13;;;;;;;2.55;1.20;;;;;;;-10.71;82.70;99274.50;10316016;28;20136;-66
2024/01/19 18:43:16;;;;;;;2.50;1.42;;;;;;;-10.77;81.74;99291.91;10309974;28;20046;-65
2024/01/19 18:48:19;;;;;;;2.72;0.70;;;;;;;-10.89;81.92;99306.59;10317802;28;20035;-66
2024/01/19 18:53:21;;;;;;;6.90;1.50;;;;;;;-11.08;81.68;99309.69;10284364;28;20050;-66
2024/01/19 18:58:26;;;;;;;3.47;1.15;;;;;;;-11.28;81.47;99325.16;10309612;28;20039;-66
2024/01/19 19:03:29;;;;;;;1.85;1.23;;;;;;;-11.43;81.17;99354.22;10316551;28;20049;-66
2024/01/19 19:08:31;;;;;;;1.85;0.80;;;;;;;-11.67;81.16;99352.47;10295012;28;20039;-65
2024/01/19 19:13:34;;;;;;;4.28;1.42;;;;;;;-11.81;81.45;99376.19;10302832;28;20043;-65
2024/01/19 19:18:37;;;;;;;2.22;1.00;;;;;;;-11.93;81.15;99388.94;10305684;28;20038;-65
2024/01/19 19:23:40;;;;;;;0.73;0.73;;;;;;;-12.11;81.13;99394.44;10315513;28;20054;-65
2024/01/19 19:28:44;;;;;;;1.10;1.00;;;;;;;-12.18;80.52;99417.22;10316816;28;20041;-65
2024/01/19 19:33:47;;;;;;;1.20;0.88;;;;;;;-12.29;81.06;99436.06;10299222;28;20046;-66
2024/01/19 19:38:50;;;;;;;1.20;1.10;;;;;;;-12.42;80.69;99443.66;10298004;28;20038;-66
2024/01/19 19:43:53;;;;;;;3.20;0.88;;;;;;;-12.58;79.91;99458.47;10302896;28;20046;-67
2024/01/19 19:48:56;;;;;;;2.60;1.00;;;;;;;-12.71;80.63;99486.34;10303035;28;20042;-64
2024/01/19 19:53:59;;;;;;;1.60;0.98;;;;;;;-12.89;81.45;99497.84;10322369;28;20038;-63
2024/01/19 19:59:02;;;;;;;3.40;1.00;;;;;;;-13.07;81.82;99514.75;10319622;28;20046;-64
2024/01/19 20:04:05;;;;;;;1.63;1.40;;;;;;;-13.21;81.73;99513.53;10318970;28;20577;-64
2024/01/19 20:09:07;;;;;;;1.70;1.20;;;;;;;-13.38;81.92;99541.66;10324053;28;20050;-64
2024/01/19 20:14:10;;;;;;;2.42;1.27;;;;;;;-13.59;82.51;99549.91;10317840;28;20046;-66
2024/01/19 20:19:12;;;;;;;3.53;0.90;;;;;;;-13.68;83.66;99560.56;10317774;28;20273;-66
2024/01/19 20:24:15;;;;;;;3.20;1.65;;;;;;;-13.77;83.80;99573.69;10319071;28;20053;-66
2024/01/19 20:29:17;;;;;;;1.67;0.90;;;;;;;-13.89;84.36;99603.06;10322353;28;20041;-65
2024/01/19 20:34:21;;;;;;;2.05;1.33;;;;;;;-13.99;84.53;99629.50;10288129;28;20038;-65
2024/01/19 20:39:23;;;;;;;2.17;1.50;;;;;;;-14.13;84.75;99643.19;10317143;28;20041;-63
2024/01/19 20:44:25;;;;;;;3.03;1.35;;;;;;;-14.19;84.62;99668.31;10317703;28;20046;-64
2024/01/19 20:49:28;;;;;;;1.10;1.00;;;;;;;-14.24;84.53;99669.72;10313841;28;20399;-64
2024/01/19 20:54:32;;;;;;;2.80;1.35;;;;;;;-14.34;84.00;99688.22;10321789;28;20213;-67
2024/01/19 20:59:35;;;;;;;3.50;1.55;;;;;;;-14.42;84.50;99704.75;10283819;28;20049;-67
2024/01/19 21:04:38;;;;;;;4.45;1.48;;;;;;;-14.52;84.76;99725.06;10316033;28;20046;-66
2024/01/19 21:09:41;;;;;;;3.25;1.15;;;;;;;-14.53;84.77;99747.13;10316611;28;20822;-66
2024/01/19 21:14:44;;;;;;;3.00;1.63;;;;;;;-14.60;84.55;99753.91;10316657;28;20045;-66
2024/01/19 21:19:47;;;;;;;2.72;1.42;;;;;;;-14.72;84.29;99769.06;10317614;28;20054;-66
2024/01/19 21:24:50;;;;;;;1.80;1.10;;;;;;;-14.71;84.14;99785.69;10321193;28;20039;-66
2024/01/19 21:29:53;;;;;;;1.92;1.48;;;;;;;-14.79;84.09;99799.53;10310144;28;20039;-66
2024/01/19 21:34:56;;;;;;;5.68;1.80;;;;;;;-14.75;85.05;99819.38;10324118;28;20041;-65
2024/01/19 21:39:58;;;;;;;2.80;1.90;;;;;;;-14.81;84.86;99819.91;10321763;28;20072;-66
2024/01/19 21:45:01;;;;;;;5.32;2.00;;;;;;;-14.82;84.31;99834.03;10306969;28;20043;-66
2024/01/19 21:50:04;;;;;;;5.38;1.80;;;;;;;-14.86;84.16;99843.19;10305539;28;20034;-67
2024/01/19 21:55:07;;;;;;;4.30;1.67;;;;;;;-14.95;84.79;99854.53;10306080;28;20046;-65
2024/01/19 22:00:10;;;;;;;2.65;1.20;;;;;;;-15.01;84.52;99868.25;10326040;28;20042;-66
2024/01/19 22:05:15;;;;;;;1.52;1.42;;;;;;;-15.03;84.63;99870.19;10311535;28;20039;-65
2024/01/19 22:10:18;;;;;;;3.42;1.52;;;;;;;-15.04;84.51;99879.88;10330975;28;20045;-65
2024/01/19 22:15:20;;;;;;;6.53;1.23;;;;;;;-15.04;84.59;99893.03;10321559;28;20034;-66
2024/01/19 22:20:23;;;;;;;2.60;1.55;;;;;;;-15.09;84.47;99905.78;10318418;28;20046;-64
2024/01/19 22:25:25;;;;;;;3.13;1.50;;;;;;;-15.03;84.31;99913.13;10298317;28;20059;-65
2024/01/19 22:30:27;;;;;;;1.80;1.50;;;;;;;-15.08;84.25;99933.75;10313537;28;20050;-64
2024/01/19 22:35:30;;;;;;;1.17;1.08;;;;;;;-15.11;84.83;99941.91;10308741;28;20038;-67
2024/01/19 22:40:34;;;;;;;3.30;1.80;;;;;;;-15.11;84.74;99952.41;10321481;28;20046;-65
2024/01/19 22:45:36;;;;;;;2.72;1.45;;;;;;;-15.12;84.75;99976.25;10319381;28;20043;-65
2024/01/19 22:50:39;;;;;;;4.13;1.13;;;;;;;-15.14;85.10;99981.63;10317963;28;20069;-65
2024/01/19 22:55:42;;;;;;;7.25;1.45;;;;;;;-15.13;84.24;100000.88;10318862;28;20046;-64
2024/01/19 23:00:44;;;;;;;1.38;1.27;;;;;;;-15.15;85.14;100010.72;10318514;28;20042;-65
2024/01/19 23:05:47;;;;;;;3.00;1.60;;;;;;;-15.19;84.71;100015.41;10318016;28;20050;-66
2024/01/19 23:10:49;;;;;;;1.83;1.17;;;;;;;-15.18;84.59;100026.78;10319087;28;20050;-65
2024/01/19 23:15:52;;;;;;;1.10;1.00;;;;;;;-15.19;84.96;100033.84;10319241;28;20046;-65
2024/01/19 23:20:55;;;;;;;5.93;2.65;;;;;;;-15.18;84.67;100048.66;10319795;28;20038;-64